PWSweather.com
Personal Weather Stations
Station Observations
PENICUIKWS
PenicuikGB

PenicuikGB

Lat: 55.830932, Lon: -3.224533000000065

Elevation: 166

Station Type: Fine Offset

http://weather.penicuik.org

Latest ConditionsUpdated 4:30:03 PM GMT Friday, May 25, 2018
Currently Today's Max Today's Min Today's Average
Temperature 59.7°F15.4°C 68.0°F20.0°C 45.9°F7.7°C 56.0°F13.3°C
Dew Point 44.0°F6.7°C 57.8°F14.3°C 42.6°F5.9°C 47.1°F8.4°C
Winds 7.0 mph N11.3 kmh N 11.0 mph NNE17.7 kmh NNE - 4.4 mph 7.1 kmh
Wind Gusts 12.1 mph19.5 kmh 19.7 mph31.7 kmh - -
Humidity 56% 99% 49% 76%
Pressure 30.33 in1027.1 mb 30.34 in1027.4 mb 30.30 in1026.1 mb -
Hour Temp Dew Point Humidity Winds Wind Gusts Pressure Precip Precip Rate Daily Precip Total
04:30 PM 59.7°F15.4°C 44.0°F6.7°C 56% 7.0 mph N11.3 kmh N 12.1 mph19.5 kmh 30.33 in1027.1 mb 0.00 in0.0 mm 0.00 in0.0 mm 0.00 in0.0 mm
04:15 PM 59.9°F15.5°C 44.2°F6.8°C 56% 5.3 mph N8.5 kmh N 9.2 mph14.8 kmh 30.33 in1027.1 mb 0.00 in0.0 mm 0.00 in0.0 mm 0.00 in0.0 mm
04:00 PM 59.7°F15.4°C 42.6°F5.9°C 53% 7.0 mph N11.3 kmh N 11.4 mph18.3 kmh 30.33 in1027.1 mb 0.00 in0.0 mm 0.00 in0.0 mm 0.00 in0.0 mm
03:30 PM 61.7°F16.5°C 43.9°F6.6°C 52% 7.8 mph NNW12.6 kmh NNW 13.0 mph20.9 kmh 30.33 in1027.1 mb 0.00 in0.0 mm 0.00 in0.0 mm 0.00 in0.0 mm
03:15 PM 63.3°F17.4°C 43.9°F6.6°C 49% 7.3 mph NNE11.7 kmh NNE 13.0 mph20.9 kmh 30.34 in1027.4 mb 0.00 in0.0 mm 0.00 in0.0 mm 0.00 in0.0 mm
03:00 PM 64.0°F17.8°C 45.0°F7.2°C 50% 9.2 mph N14.8 kmh N 13.0 mph20.9 kmh 30.33 in1027.1 mb 0.00 in0.0 mm 0.00 in0.0 mm 0.00 in0.0 mm
02:45 PM 64.8°F18.2°C 46.7°F8.2°C 52% 9.5 mph N15.3 kmh N 19.7 mph31.7 kmh 30.34 in1027.4 mb 0.00 in0.0 mm 0.00 in0.0 mm 0.00 in0.0 mm
02:30 PM 65.3°F18.5°C 48.2°F9.0°C 54% 9.1 mph N14.6 kmh N 11.4 mph18.3 kmh 30.33 in1027.1 mb 0.00 in0.0 mm 0.00 in0.0 mm 0.00 in0.0 mm
02:15 PM 66.4°F19.1°C 49.7°F9.8°C 55% 7.5 mph N12.1 kmh N 13.0 mph20.9 kmh 30.33 in1027.1 mb 0.00 in0.0 mm 0.00 in0.0 mm 0.00 in0.0 mm
02:00 PM 66.7°F19.3°C 49.1°F9.5°C 53% 9.0 mph N14.5 kmh N 12.1 mph19.5 kmh 30.34 in1027.4 mb 0.00 in0.0 mm 0.00 in0.0 mm 0.00 in0.0 mm
01:45 PM 66.6°F19.2°C 48.9°F9.4°C 53% 9.7 mph NNE15.6 kmh NNE 13.6 mph21.9 kmh 30.34 in1027.4 mb 0.00 in0.0 mm 0.00 in0.0 mm 0.00 in0.0 mm
01:30 PM 65.7°F18.7°C 48.1°F8.9°C 53% 11.0 mph NNE17.7 kmh NNE 16.8 mph27.0 kmh 30.33 in1027.1 mb 0.00 in0.0 mm 0.00 in0.0 mm 0.00 in0.0 mm
01:15 PM 66.9°F19.4°C 49.3°F9.6°C 53% 9.0 mph NE14.5 kmh NE 15.2 mph24.5 kmh 30.33 in1027.1 mb 0.00 in0.0 mm 0.00 in0.0 mm 0.00 in0.0 mm
12:15 PM 68.0°F20.0°C 48.1°F8.9°C 49% 7.3 mph N11.7 kmh N 11.4 mph18.3 kmh 30.32 in1026.8 mb 0.00 in0.0 mm 0.00 in0.0 mm 0.00 in0.0 mm
12:00 PM 65.8°F18.8°C 48.3°F9.1°C 53% 10.2 mph N16.4 kmh N 14.5 mph23.3 kmh 30.32 in1026.8 mb 0.00 in0.0 mm 0.00 in0.0 mm 0.00 in0.0 mm
11:45 AM 64.0°F17.8°C 45.6°F7.6°C 51% 10.5 mph NNE16.9 kmh NNE 19.0 mph30.6 kmh 30.32 in1026.8 mb 0.00 in0.0 mm 0.00 in0.0 mm 0.00 in0.0 mm
11:30 AM 65.1°F18.4°C 46.0°F7.8°C 50% 9.2 mph N14.8 kmh N 14.5 mph23.3 kmh 30.32 in1026.8 mb 0.00 in0.0 mm 0.00 in0.0 mm 0.00 in0.0 mm
11:15 AM 67.1°F19.5°C 47.3°F8.5°C 49% 9.3 mph N15.0 kmh N 12.1 mph19.5 kmh 30.32 in1026.8 mb 0.00 in0.0 mm 0.00 in0.0 mm 0.00 in0.0 mm
11:00 AM 66.9°F19.4°C 48.2°F9.0°C 51% 7.6 mph N12.2 kmh N 13.0 mph20.9 kmh 30.33 in1027.1 mb 0.00 in0.0 mm 0.00 in0.0 mm 0.00 in0.0 mm
10:45 AM 65.8°F18.8°C 48.7°F9.3°C 54% 6.6 mph N10.6 kmh N 9.2 mph14.8 kmh 30.32 in1026.8 mb 0.00 in0.0 mm 0.00 in0.0 mm 0.00 in0.0 mm
10:30 AM 66.0°F18.9°C 48.4°F9.1°C 53% 6.4 mph N10.3 kmh N 9.2 mph14.8 kmh 30.33 in1027.1 mb 0.00 in0.0 mm 0.00 in0.0 mm 0.00 in0.0 mm
10:15 AM 66.6°F19.2°C 48.9°F9.4°C 53% 5.1 mph NNE8.2 kmh NNE 6.9 mph11.1 kmh 30.33 in1027.1 mb 0.00 in0.0 mm 0.00 in0.0 mm 0.00 in0.0 mm
10:00 AM 64.6°F18.1°C 48.5°F9.2°C 56% 7.2 mph NNE11.6 kmh NNE 10.7 mph17.2 kmh 30.32 in1026.8 mb 0.00 in0.0 mm 0.00 in0.0 mm 0.00 in0.0 mm
09:45 AM 64.4°F18.0°C 48.4°F9.1°C 56% 6.6 mph NNE10.6 kmh NNE 10.7 mph17.2 kmh 30.32 in1026.8 mb 0.00 in0.0 mm 0.00 in0.0 mm 0.00 in0.0 mm
09:00 AM 65.5°F18.6°C 50.8°F10.4°C 59% 4.3 mph NNE6.9 kmh NNE 6.0 mph9.7 kmh 30.33 in1027.1 mb 0.00 in0.0 mm 0.00 in0.0 mm 0.00 in0.0 mm
08:45 AM 66.4°F19.1°C 51.2°F10.7°C 58% 2.5 mph NW4.0 kmh NW 5.4 mph8.7 kmh 30.33 in1027.1 mb 0.00 in0.0 mm 0.00 in0.0 mm 0.00 in0.0 mm
08:30 AM 63.3°F17.4°C 51.0°F10.6°C 64% 3.3 mph NE5.3 kmh NE 4.5 mph7.2 kmh 30.33 in1027.1 mb 0.00 in0.0 mm 0.00 in0.0 mm 0.00 in0.0 mm
08:00 AM 61.2°F16.2°C 52.8°F11.6°C 74% 1.7 mph N2.7 kmh N 2.2 mph3.5 kmh 30.32 in1026.8 mb 0.00 in0.0 mm 0.00 in0.0 mm 0.00 in0.0 mm
07:45 AM 60.1°F15.6°C 57.8°F14.3°C 92% 1.8 mph NE2.9 kmh NE 3.1 mph5.0 kmh 30.32 in1026.8 mb 0.00 in0.0 mm 0.00 in0.0 mm 0.00 in0.0 mm
07:30 AM 52.9°F11.6°C 52.3°F11.3°C 98% 2.1 mph NNE3.4 kmh NNE 3.1 mph5.0 kmh 30.32 in1026.8 mb 0.00 in0.0 mm 0.00 in0.0 mm 0.00 in0.0 mm
07:15 AM 50.0°F10.0°C 49.7°F9.8°C 99% 1.6 mph N2.6 kmh N 3.1 mph5.0 kmh 30.32 in1026.8 mb 0.00 in0.0 mm 0.00 in0.0 mm 0.00 in0.0 mm
07:00 AM 48.7°F9.3°C 48.5°F9.2°C 99% 2.5 mph NNE4.0 kmh NNE 4.5 mph7.2 kmh 30.32 in1026.8 mb 0.00 in0.0 mm 0.00 in0.0 mm 0.00 in0.0 mm
06:30 AM 48.9°F9.4°C 48.7°F9.3°C 99% 1.0 mph N1.6 kmh N 2.2 mph3.5 kmh 30.31 in1026.4 mb 0.00 in0.0 mm 0.00 in0.0 mm 0.00 in0.0 mm
06:15 AM 48.4°F9.1°C 48.1°F8.9°C 99% 0.5 mph SSW0.8 kmh SSW 1.6 mph2.6 kmh 30.31 in1026.4 mb 0.00 in0.0 mm 0.00 in0.0 mm 0.00 in0.0 mm
06:00 AM 47.3°F8.5°C 47.0°F8.3°C 99% 0.9 mph S1.4 kmh S 2.2 mph3.5 kmh 30.31 in1026.4 mb 0.00 in0.0 mm 0.00 in0.0 mm 0.00 in0.0 mm
05:45 AM 46.6°F8.1°C 46.3°F7.9°C 99% 0.2 mph WSW0.3 kmh WSW 0.7 mph1.1 kmh 30.31 in1026.4 mb 0.00 in0.0 mm 0.00 in0.0 mm 0.00 in0.0 mm
05:30 AM 46.0°F7.8°C 45.2°F7.3°C 97% 1.3 mph NNE2.1 kmh NNE 2.2 mph3.5 kmh 30.31 in1026.4 mb 0.00 in0.0 mm 0.00 in0.0 mm 0.00 in0.0 mm
05:15 AM 46.0°F7.8°C 45.2°F7.3°C 97% 1.4 mph NE2.3 kmh NE 3.1 mph5.0 kmh 30.31 in1026.4 mb 0.00 in0.0 mm 0.00 in0.0 mm 0.00 in0.0 mm
05:00 AM 46.0°F7.8°C 45.2°F7.3°C 97% 0.9 mph N1.4 kmh N 1.6 mph2.6 kmh 30.31 in1026.4 mb 0.00 in0.0 mm 0.00 in0.0 mm 0.00 in0.0 mm
04:45 AM 46.2°F7.9°C 45.4°F7.4°C 97% 0.2 mph N0.3 kmh N 1.6 mph2.6 kmh 30.30 in1026.1 mb 0.00 in0.0 mm 0.00 in0.0 mm 0.00 in0.0 mm
04:30 AM 46.0°F7.8°C 45.2°F7.3°C 97% 0.2 mph NE0.3 kmh NE 0.7 mph1.1 kmh 30.30 in1026.1 mb 0.00 in0.0 mm 0.00 in0.0 mm 0.00 in0.0 mm
04:15 AM 46.0°F7.8°C 45.2°F7.3°C 97% Calm Calm -- 30.30 in1026.1 mb 0.00 in0.0 mm 0.00 in0.0 mm 0.00 in0.0 mm
04:00 AM 46.0°F7.8°C 45.2°F7.3°C 97% Calm Calm -- 30.30 in1026.1 mb 0.00 in0.0 mm 0.00 in0.0 mm 0.00 in0.0 mm
03:45 AM 46.0°F7.8°C 45.2°F7.3°C 97% 1.4 mph SW2.3 kmh SW 3.1 mph5.0 kmh 30.30 in1026.1 mb 0.00 in0.0 mm 0.00 in0.0 mm 0.00 in0.0 mm
03:30 AM 46.0°F7.8°C 45.2°F7.3°C 97% 0.9 mph NNW1.4 kmh NNW 2.2 mph3.5 kmh 30.30 in1026.1 mb 0.00 in0.0 mm 0.00 in0.0 mm 0.00 in0.0 mm
03:00 AM 46.0°F7.8°C 45.2°F7.3°C 97% 0.8 mph NNE1.3 kmh NNE 2.2 mph3.5 kmh 30.30 in1026.1 mb 0.00 in0.0 mm 0.00 in0.0 mm 0.00 in0.0 mm
02:45 AM 45.9°F7.7°C 45.1°F7.3°C 97% 2.2 mph NNE3.5 kmh NNE 3.1 mph5.0 kmh 30.30 in1026.1 mb 0.00 in0.0 mm 0.00 in0.0 mm 0.00 in0.0 mm
02:30 AM 46.0°F7.8°C 45.2°F7.3°C 97% 1.3 mph N2.1 kmh N 1.6 mph2.6 kmh 30.30 in1026.1 mb 0.00 in0.0 mm 0.00 in0.0 mm 0.00 in0.0 mm
02:15 AM 46.0°F7.8°C 45.2°F7.3°C 97% 1.8 mph NE2.9 kmh NE 3.1 mph5.0 kmh 30.30 in1026.1 mb 0.00 in0.0 mm 0.00 in0.0 mm 0.00 in0.0 mm
02:00 AM 46.0°F7.8°C 45.2°F7.3°C 97% 2.1 mph N3.4 kmh N 3.1 mph5.0 kmh 30.30 in1026.1 mb 0.00 in0.0 mm 0.00 in0.0 mm 0.00 in0.0 mm
01:30 AM 46.0°F7.8°C 45.2°F7.3°C 97% 2.7 mph NNE4.3 kmh NNE 4.5 mph7.2 kmh 30.31 in1026.4 mb 0.00 in0.0 mm 0.00 in0.0 mm 0.00 in0.0 mm
01:00 AM 46.0°F7.8°C 45.2°F7.3°C 97% 2.6 mph NNE4.2 kmh NNE 3.8 mph6.1 kmh 30.30 in1026.1 mb 0.00 in0.0 mm 0.00 in0.0 mm 0.00 in0.0 mm
12:45 AM 46.2°F7.9°C 45.4°F7.4°C 97% 2.3 mph NNE3.7 kmh NNE 3.1 mph5.0 kmh 30.31 in1026.4 mb 0.00 in0.0 mm 0.00 in0.0 mm 0.00 in0.0 mm
12:30 AM 46.2°F7.9°C 45.4°F7.4°C 97% 2.3 mph N3.7 kmh N 3.1 mph5.0 kmh 30.30 in1026.1 mb 0.00 in0.0 mm 0.00 in0.0 mm 0.00 in0.0 mm
12:15 AM 46.2°F7.9°C 45.4°F7.4°C 97% 2.8 mph NNE4.5 kmh NNE 3.8 mph6.1 kmh 30.30 in1026.1 mb 0.00 in0.0 mm 0.00 in0.0 mm 0.00 in0.0 mm
12:00 AM 46.4°F8.0°C 46.1°F7.8°C 99% 1.7 mph NNE2.7 kmh NNE 3.1 mph5.0 kmh 30.30 in1026.1 mb 0.00 in0.0 mm 0.00 in0.0 mm 0.00 in0.0 mm